sensor_id;sensor_type;location;lat;lon;timestamp;P1;durP1;ratioP1;P2;durP2;ratioP2
80567;SDS011;69922;45.656;25.586;2023-12-28T00:00:46;140.60;;;51.00;;
80567;SDS011;69922;45.656;25.586;2023-12-28T00:02:13;98.30;;;35.90;;
80567;SDS011;69922;45.656;25.586;2023-12-28T00:03:20;112.50;;;42.40;;
80567;SDS011;69922;45.656;25.586;2023-12-28T00:04:27;89.10;;;34.70;;
80567;SDS011;69922;45.656;25.586;2023-12-28T00:05:34;84.40;;;32.50;;
80567;SDS011;69922;45.656;25.586;2023-12-28T00:06:40;81.40;;;30.60;;
80567;SDS011;69922;45.656;25.586;2023-12-28T00:07:47;88.60;;;34.50;;
80567;SDS011;69922;45.656;25.586;2023-12-28T00:09:01;75.80;;;28.90;;
80567;SDS011;69922;45.656;25.586;2023-12-28T00:10:15;52.80;;;24.00;;
80567;SDS011;69922;45.656;25.586;2023-12-28T00:11:22;45.30;;;19.40;;
80567;SDS011;69922;45.656;25.586;2023-12-28T00:12:28;58.40;;;22.20;;
80567;SDS011;69922;45.656;25.586;2023-12-28T00:13:35;37.20;;;16.20;;
80567;SDS011;69922;45.656;25.586;2023-12-28T00:14:42;37.70;;;15.10;;
80567;SDS011;69922;45.656;25.586;2023-12-28T00:15:49;59.40;;;24.10;;
80567;SDS011;69922;45.656;25.586;2023-12-28T00:16:55;80.10;;;29.60;;
80567;SDS011;69922;45.656;25.586;2023-12-28T00:18:02;84.30;;;31.00;;
80567;SDS011;69922;45.656;25.586;2023-12-28T00:19:10;90.80;;;32.00;;
80567;SDS011;69922;45.656;25.586;2023-12-28T00:20:17;92.20;;;31.80;;
80567;SDS011;69922;45.656;25.586;2023-12-28T00:21:23;87.90;;;31.80;;
80567;SDS011;69922;45.656;25.586;2023-12-28T00:22:29;84.50;;;30.10;;
80567;SDS011;69922;45.656;25.586;2023-12-28T00:23:36;60.60;;;24.50;;
80567;SDS011;69922;45.656;25.586;2023-12-28T00:24:43;54.00;;;21.20;;
80567;SDS011;69922;45.656;25.586;2023-12-28T00:25:49;39.10;;;18.10;;
80567;SDS011;69922;45.656;25.586;2023-12-28T00:26:56;43.90;;;18.50;;
80567;SDS011;69922;45.656;25.586;2023-12-28T00:28:03;35.00;;;14.80;;
80567;SDS011;69922;45.656;25.586;2023-12-28T00:29:10;42.10;;;15.60;;
80567;SDS011;69922;45.656;25.586;2023-12-28T00:30:17;34.70;;;14.90;;
80567;SDS011;69922;45.656;25.586;2023-12-28T00:31:23;32.40;;;14.30;;
80567;SDS011;69922;45.656;25.586;2023-12-28T00:32:30;36.80;;;13.20;;
80567;SDS011;69922;45.656;25.586;2023-12-28T00:33:36;39.00;;;16.20;;
80567;SDS011;69922;45.656;25.586;2023-12-28T00:34:42;35.10;;;16.20;;
80567;SDS011;69922;45.656;25.586;2023-12-28T00:35:49;27.80;;;13.30;;
80567;SDS011;69922;45.656;25.586;2023-12-28T00:36:56;25.80;;;13.20;;
80567;SDS011;69922;45.656;25.586;2023-12-28T00:38:02;25.30;;;13.90;;
80567;SDS011;69922;45.656;25.586;2023-12-28T00:39:09;26.10;;;13.40;;
80567;SDS011;69922;45.656;25.586;2023-12-28T00:40:16;23.90;;;12.90;;
80567;SDS011;69922;45.656;25.586;2023-12-28T00:41:22;24.90;;;13.20;;
80567;SDS011;69922;45.656;25.586;2023-12-28T00:42:29;25.60;;;13.50;;
80567;SDS011;69922;45.656;25.586;2023-12-28T00:43:35;27.20;;;13.30;;
80567;SDS011;69922;45.656;25.586;2023-12-28T00:44:41;25.10;;;14.20;;
80567;SDS011;69922;45.656;25.586;2023-12-28T00:45:48;25.60;;;13.40;;
80567;SDS011;69922;45.656;25.586;2023-12-28T00:46:55;31.60;;;14.70;;
80567;SDS011;69922;45.656;25.586;2023-12-28T00:48:02;27.20;;;14.20;;
80567;SDS011;69922;45.656;25.586;2023-12-28T00:49:10;26.80;;;15.10;;
80567;SDS011;69922;45.656;25.586;2023-12-28T00:50:17;26.00;;;14.10;;
80567;SDS011;69922;45.656;25.586;2023-12-28T00:51:24;24.90;;;12.70;;
80567;SDS011;69922;45.656;25.586;2023-12-28T00:52:30;24.90;;;13.50;;
80567;SDS011;69922;45.656;25.586;2023-12-28T00:53:36;24.90;;;12.70;;
80567;SDS011;69922;45.656;25.586;2023-12-28T00:54:43;26.50;;;13.60;;
80567;SDS011;69922;45.656;25.586;2023-12-28T00:55:49;24.10;;;12.70;;
80567;SDS011;69922;45.656;25.586;2023-12-28T00:56:56;24.00;;;14.20;;
80567;SDS011;69922;45.656;25.586;2023-12-28T00:58:02;30.10;;;14.00;;
80567;SDS011;69922;45.656;25.586;2023-12-28T00:59:09;24.20;;;14.80;;
80567;SDS011;69922;45.656;25.586;2023-12-28T01:00:16;27.40;;;13.60;;
80567;SDS011;69922;45.656;25.586;2023-12-28T01:01:22;25.00;;;12.90;;
80567;SDS011;69922;45.656;25.586;2023-12-28T01:02:29;27.80;;;14.00;;
80567;SDS011;69922;45.656;25.586;2023-12-28T01:03:35;29.70;;;13.30;;
80567;SDS011;69922;45.656;25.586;2023-12-28T01:04:42;27.80;;;14.20;;
80567;SDS011;69922;45.656;25.586;2023-12-28T01:05:49;26.60;;;13.20;;
80567;SDS011;69922;45.656;25.586;2023-12-28T01:06:57;26.00;;;12.50;;
80567;SDS011;69922;45.656;25.586;2023-12-28T01:09:11;21.60;;;11.70;;
80567;SDS011;69922;45.656;25.586;2023-12-28T01:10:18;25.50;;;13.30;;
80567;SDS011;69922;45.656;25.586;2023-12-28T01:11:24;21.60;;;11.50;;
80567;SDS011;69922;45.656;25.586;2023-12-28T01:12:31;19.70;;;11.90;;
80567;SDS011;69922;45.656;25.586;2023-12-28T01:13:37;18.50;;;10.80;;
80567;SDS011;69922;45.656;25.586;2023-12-28T01:14:45;20.30;;;10.50;;
80567;SDS011;69922;45.656;25.586;2023-12-28T01:15:52;17.80;;;10.20;;
80567;SDS011;69922;45.656;25.586;2023-12-28T01:16:58;17.10;;;9.80;;
80567;SDS011;69922;45.656;25.586;2023-12-28T01:18:05;19.50;;;9.70;;
80567;SDS011;69922;45.656;25.586;2023-12-28T01:19:12;20.30;;;11.30;;
80567;SDS011;69922;45.656;25.586;2023-12-28T01:20:19;17.10;;;10.20;;
80567;SDS011;69922;45.656;25.586;2023-12-28T01:21:25;17.70;;;9.30;;
80567;SDS011;69922;45.656;25.586;2023-12-28T01:22:33;16.70;;;8.80;;
80567;SDS011;69922;45.656;25.586;2023-12-28T01:23:39;17.40;;;9.80;;
80567;SDS011;69922;45.656;25.586;2023-12-28T01:24:47;18.60;;;9.50;;
80567;SDS011;69922;45.656;25.586;2023-12-28T01:25:54;16.90;;;9.40;;
80567;SDS011;69922;45.656;25.586;2023-12-28T01:27:01;18.80;;;11.00;;
80567;SDS011;69922;45.656;25.586;2023-12-28T01:28:08;21.80;;;11.50;;
80567;SDS011;69922;45.656;25.586;2023-12-28T01:29:14;19.70;;;11.10;;
80567;SDS011;69922;45.656;25.586;2023-12-28T01:30:21;20.50;;;10.90;;
80567;SDS011;69922;45.656;25.586;2023-12-28T01:31:28;22.90;;;11.00;;
80567;SDS011;69922;45.656;25.586;2023-12-28T01:32:35;22.50;;;11.70;;
80567;SDS011;69922;45.656;25.586;2023-12-28T01:33:42;20.20;;;11.40;;
80567;SDS011;69922;45.656;25.586;2023-12-28T01:34:48;23.40;;;12.10;;
80567;SDS011;69922;45.656;25.586;2023-12-28T01:35:55;23.50;;;12.90;;
80567;SDS011;69922;45.656;25.586;2023-12-28T01:37:02;20.30;;;11.50;;
80567;SDS011;69922;45.656;25.586;2023-12-28T01:38:08;21.00;;;12.10;;
80567;SDS011;69922;45.656;25.586;2023-12-28T01:39:15;23.70;;;11.60;;
80567;SDS011;69922;45.656;25.586;2023-12-28T01:40:23;20.80;;;11.20;;
80567;SDS011;69922;45.656;25.586;2023-12-28T01:41:29;21.40;;;11.10;;
80567;SDS011;69922;45.656;25.586;2023-12-28T01:42:36;20.30;;;11.90;;
80567;SDS011;69922;45.656;25.586;2023-12-28T01:43:43;20.50;;;11.50;;
80567;SDS011;69922;45.656;25.586;2023-12-28T01:44:50;19.50;;;10.70;;
80567;SDS011;69922;45.656;25.586;2023-12-28T01:45:57;21.90;;;11.80;;
80567;SDS011;69922;45.656;25.586;2023-12-28T01:47:03;21.20;;;10.90;;
80567;SDS011;69922;45.656;25.586;2023-12-28T01:48:10;21.00;;;11.50;;
80567;SDS011;69922;45.656;25.586;2023-12-28T01:49:18;20.20;;;10.80;;
80567;SDS011;69922;45.656;25.586;2023-12-28T01:50:25;23.00;;;11.30;;
80567;SDS011;69922;45.656;25.586;2023-12-28T01:51:32;20.90;;;11.50;;
80567;SDS011;69922;45.656;25.586;2023-12-28T01:52:39;18.00;;;10.60;;
80567;SDS011;69922;45.656;25.586;2023-12-28T01:53:47;19.80;;;10.40;;
80567;SDS011;69922;45.656;25.586;2023-12-28T01:54:55;18.70;;;11.20;;
80567;SDS011;69922;45.656;25.586;2023-12-28T01:56:02;20.70;;;11.10;;
80567;SDS011;69922;45.656;25.586;2023-12-28T01:57:10;18.00;;;10.10;;
80567;SDS011;69922;45.656;25.586;2023-12-28T01:58:17;18.90;;;10.30;;
80567;SDS011;69922;45.656;25.586;2023-12-28T01:59:24;20.50;;;10.50;;
80567;SDS011;69922;45.656;25.586;2023-12-28T02:00:31;24.70;;;10.70;;
80567;SDS011;69922;45.656;25.586;2023-12-28T02:01:41;20.30;;;10.40;;
80567;SDS011;69922;45.656;25.586;2023-12-28T02:02:47;18.00;;;9.80;;
80567;SDS011;69922;45.656;25.586;2023-12-28T02:03:54;19.00;;;10.60;;
80567;SDS011;69922;45.656;25.586;2023-12-28T02:05:02;20.20;;;10.50;;
80567;SDS011;69922;45.656;25.586;2023-12-28T02:06:09;18.90;;;9.40;;
80567;SDS011;69922;45.656;25.586;2023-12-28T02:07:17;20.10;;;9.90;;
80567;SDS011;69922;45.656;25.586;2023-12-28T02:08:24;20.20;;;10.50;;
80567;SDS011;69922;45.656;25.586;2023-12-28T02:09:31;18.30;;;8.90;;
80567;SDS011;69922;45.656;25.586;2023-12-28T02:10:38;17.00;;;9.60;;
80567;SDS011;69922;45.656;25.586;2023-12-28T02:11:44;17.50;;;9.50;;
80567;SDS011;69922;45.656;25.586;2023-12-28T02:12:51;18.70;;;10.00;;
80567;SDS011;69922;45.656;25.586;2023-12-28T02:13:57;15.80;;;9.10;;
80567;SDS011;69922;45.656;25.586;2023-12-28T02:15:05;17.10;;;9.50;;
80567;SDS011;69922;45.656;25.586;2023-12-28T02:16:13;13.60;;;7.50;;
80567;SDS011;69922;45.656;25.586;2023-12-28T02:17:27;14.50;;;8.70;;
80567;SDS011;69922;45.656;25.586;2023-12-28T02:18:39;15.80;;;8.80;;
80567;SDS011;69922;45.656;25.586;2023-12-28T02:19:51;18.50;;;10.20;;
80567;SDS011;69922;45.656;25.586;2023-12-28T02:20:59;17.60;;;8.50;;
80567;SDS011;69922;45.656;25.586;2023-12-28T02:22:10;19.60;;;9.90;;
80567;SDS011;69922;45.656;25.586;2023-12-28T02:23:23;19.70;;;10.30;;
80567;SDS011;69922;45.656;25.586;2023-12-28T02:24:29;19.80;;;10.20;;
80567;SDS011;69922;45.656;25.586;2023-12-28T02:25:36;18.10;;;9.90;;
80567;SDS011;69922;45.656;25.586;2023-12-28T02:26:43;15.50;;;9.50;;
80567;SDS011;69922;45.656;25.586;2023-12-28T02:27:49;17.90;;;10.60;;
80567;SDS011;69922;45.656;25.586;2023-12-28T02:28:56;18.80;;;10.10;;
80567;SDS011;69922;45.656;25.586;2023-12-28T02:30:03;18.30;;;10.10;;
80567;SDS011;69922;45.656;25.586;2023-12-28T02:31:13;19.90;;;10.40;;
80567;SDS011;69922;45.656;25.586;2023-12-28T02:32:27;16.60;;;9.10;;
80567;SDS011;69922;45.656;25.586;2023-12-28T02:33:43;17.90;;;10.00;;
80567;SDS011;69922;45.656;25.586;2023-12-28T02:34:56;18.00;;;10.10;;
80567;SDS011;69922;45.656;25.586;2023-12-28T02:36:10;22.60;;;10.50;;
80567;SDS011;69922;45.656;25.586;2023-12-28T02:37:20;15.70;;;9.40;;
80567;SDS011;69922;45.656;25.586;2023-12-28T02:38:28;19.00;;;9.50;;
80567;SDS011;69922;45.656;25.586;2023-12-28T02:39:36;20.70;;;10.10;;
80567;SDS011;69922;45.656;25.586;2023-12-28T02:40:45;16.00;;;9.20;;
80567;SDS011;69922;45.656;25.586;2023-12-28T02:41:51;17.60;;;9.10;;
80567;SDS011;69922;45.656;25.586;2023-12-28T02:42:59;19.60;;;10.30;;
80567;SDS011;69922;45.656;25.586;2023-12-28T02:44:06;18.40;;;9.10;;
80567;SDS011;69922;45.656;25.586;2023-12-28T02:45:13;22.30;;;10.40;;
80567;SDS011;69922;45.656;25.586;2023-12-28T02:46:19;15.70;;;9.70;;
80567;SDS011;69922;45.656;25.586;2023-12-28T02:47:26;19.10;;;9.80;;
80567;SDS011;69922;45.656;25.586;2023-12-28T02:48:32;17.00;;;10.00;;
80567;SDS011;69922;45.656;25.586;2023-12-28T02:49:39;18.40;;;10.30;;
80567;SDS011;69922;45.656;25.586;2023-12-28T02:50:46;19.30;;;10.90;;
80567;SDS011;69922;45.656;25.586;2023-12-28T02:51:52;19.00;;;10.40;;
80567;SDS011;69922;45.656;25.586;2023-12-28T02:52:59;18.50;;;10.80;;
80567;SDS011;69922;45.656;25.586;2023-12-28T02:54:06;20.10;;;11.00;;
80567;SDS011;69922;45.656;25.586;2023-12-28T02:55:12;17.20;;;10.30;;
80567;SDS011;69922;45.656;25.586;2023-12-28T02:56:18;17.50;;;9.70;;
80567;SDS011;69922;45.656;25.586;2023-12-28T02:57:25;16.60;;;9.30;;
80567;SDS011;69922;45.656;25.586;2023-12-28T02:58:31;20.20;;;9.90;;
80567;SDS011;69922;45.656;25.586;2023-12-28T02:59:38;19.30;;;9.90;;
80567;SDS011;69922;45.656;25.586;2023-12-28T03:00:45;17.70;;;9.90;;
80567;SDS011;69922;45.656;25.586;2023-12-28T03:01:53;15.30;;;9.60;;
80567;SDS011;69922;45.656;25.586;2023-12-28T03:03:00;17.00;;;9.40;;
80567;SDS011;69922;45.656;25.586;2023-12-28T03:04:06;17.30;;;9.70;;
80567;SDS011;69922;45.656;25.586;2023-12-28T03:05:14;17.00;;;9.40;;
80567;SDS011;69922;45.656;25.586;2023-12-28T03:06:20;16.00;;;8.80;;
80567;SDS011;69922;45.656;25.586;2023-12-28T03:07:27;17.00;;;9.30;;
80567;SDS011;69922;45.656;25.586;2023-12-28T03:08:33;16.10;;;8.90;;
80567;SDS011;69922;45.656;25.586;2023-12-28T03:09:40;17.40;;;9.60;;
80567;SDS011;69922;45.656;25.586;2023-12-28T03:10:46;16.50;;;9.00;;
80567;SDS011;69922;45.656;25.586;2023-12-28T03:11:52;15.20;;;9.10;;
80567;SDS011;69922;45.656;25.586;2023-12-28T03:12:59;16.10;;;8.90;;
80567;SDS011;69922;45.656;25.586;2023-12-28T03:14:05;15.90;;;9.00;;
80567;SDS011;69922;45.656;25.586;2023-12-28T03:15:12;14.60;;;8.50;;
80567;SDS011;69922;45.656;25.586;2023-12-28T03:16:18;14.10;;;8.90;;
80567;SDS011;69922;45.656;25.586;2023-12-28T03:17:25;15.00;;;9.30;;
80567;SDS011;69922;45.656;25.586;2023-12-28T03:18:33;16.30;;;9.00;;
80567;SDS011;69922;45.656;25.586;2023-12-28T03:19:40;16.40;;;8.50;;
80567;SDS011;69922;45.656;25.586;2023-12-28T03:20:47;14.50;;;8.00;;
80567;SDS011;69922;45.656;25.586;2023-12-28T03:21:53;12.50;;;7.60;;
80567;SDS011;69922;45.656;25.586;2023-12-28T03:23:00;12.90;;;7.10;;
80567;SDS011;69922;45.656;25.586;2023-12-28T03:24:07;12.70;;;7.10;;
80567;SDS011;69922;45.656;25.586;2023-12-28T03:25:13;14.10;;;8.10;;
80567;SDS011;69922;45.656;25.586;2023-12-28T03:26:20;14.10;;;7.60;;
80567;SDS011;69922;45.656;25.586;2023-12-28T03:27:26;14.10;;;7.80;;
80567;SDS011;69922;45.656;25.586;2023-12-28T03:28:33;14.50;;;8.40;;
80567;SDS011;69922;45.656;25.586;2023-12-28T03:29:40;15.00;;;8.30;;
80567;SDS011;69922;45.656;25.586;2023-12-28T03:30:47;17.30;;;9.10;;
80567;SDS011;69922;45.656;25.586;2023-12-28T03:31:53;17.40;;;8.40;;
80567;SDS011;69922;45.656;25.586;2023-12-28T03:33:01;13.60;;;8.40;;
80567;SDS011;69922;45.656;25.586;2023-12-28T03:34:07;16.30;;;9.00;;
80567;SDS011;69922;45.656;25.586;2023-12-28T03:35:14;14.10;;;7.60;;
80567;SDS011;69922;45.656;25.586;2023-12-28T03:36:20;17.10;;;8.80;;
80567;SDS011;69922;45.656;25.586;2023-12-28T03:37:27;13.50;;;8.90;;
80567;SDS011;69922;45.656;25.586;2023-12-28T03:38:34;16.10;;;10.20;;
80567;SDS011;69922;45.656;25.586;2023-12-28T03:39:40;16.50;;;9.20;;
80567;SDS011;69922;45.656;25.586;2023-12-28T03:40:47;15.60;;;10.70;;
80567;SDS011;69922;45.656;25.586;2023-12-28T03:41:54;18.50;;;11.30;;
80567;SDS011;69922;45.656;25.586;2023-12-28T03:43:01;18.40;;;10.00;;
80567;SDS011;69922;45.656;25.586;2023-12-28T03:44:08;18.30;;;8.80;;
80567;SDS011;69922;45.656;25.586;2023-12-28T03:45:14;19.80;;;9.80;;
80567;SDS011;69922;45.656;25.586;2023-12-28T03:46:21;18.80;;;11.20;;
80567;SDS011;69922;45.656;25.586;2023-12-28T03:47:27;20.50;;;10.00;;
80567;SDS011;69922;45.656;25.586;2023-12-28T03:48:34;16.20;;;9.30;;
80567;SDS011;69922;45.656;25.586;2023-12-28T03:49:42;16.00;;;9.20;;
80567;SDS011;69922;45.656;25.586;2023-12-28T03:50:48;16.30;;;10.40;;
80567;SDS011;69922;45.656;25.586;2023-12-28T03:51:55;16.80;;;10.40;;
80567;SDS011;69922;45.656;25.586;2023-12-28T03:53:01;17.40;;;9.70;;
80567;SDS011;69922;45.656;25.586;2023-12-28T03:54:08;17.30;;;10.20;;
80567;SDS011;69922;45.656;25.586;2023-12-28T03:55:15;16.70;;;10.00;;
80567;SDS011;69922;45.656;25.586;2023-12-28T03:56:24;18.00;;;10.80;;
80567;SDS011;69922;45.656;25.586;2023-12-28T03:57:31;16.70;;;9.80;;
80567;SDS011;69922;45.656;25.586;2023-12-28T03:58:38;17.20;;;10.00;;
80567;SDS011;69922;45.656;25.586;2023-12-28T03:59:44;16.20;;;9.10;;
80567;SDS011;69922;45.656;25.586;2023-12-28T04:00:52;16.00;;;9.80;;
80567;SDS011;69922;45.656;25.586;2023-12-28T04:01:58;15.40;;;9.90;;
80567;SDS011;69922;45.656;25.586;2023-12-28T04:03:05;18.00;;;9.70;;
80567;SDS011;69922;45.656;25.586;2023-12-28T04:04:12;16.40;;;9.80;;
80567;SDS011;69922;45.656;25.586;2023-12-28T04:05:18;17.60;;;10.30;;
80567;SDS011;69922;45.656;25.586;2023-12-28T04:06:25;15.20;;;9.70;;
80567;SDS011;69922;45.656;25.586;2023-12-28T04:07:32;18.90;;;10.10;;
80567;SDS011;69922;45.656;25.586;2023-12-28T04:08:38;18.20;;;9.50;;
80567;SDS011;69922;45.656;25.586;2023-12-28T04:09:45;17.50;;;10.40;;
80567;SDS011;69922;45.656;25.586;2023-12-28T04:10:51;18.20;;;10.20;;
80567;SDS011;69922;45.656;25.586;2023-12-28T04:11:57;18.50;;;10.70;;
80567;SDS011;69922;45.656;25.586;2023-12-28T04:13:04;17.80;;;9.90;;
80567;SDS011;69922;45.656;25.586;2023-12-28T04:14:11;16.40;;;9.90;;
80567;SDS011;69922;45.656;25.586;2023-12-28T04:15:18;16.70;;;10.00;;
80567;SDS011;69922;45.656;25.586;2023-12-28T04:16:24;20.50;;;11.60;;
80567;SDS011;69922;45.656;25.586;2023-12-28T04:17:30;17.20;;;9.80;;
80567;SDS011;69922;45.656;25.586;2023-12-28T04:18:37;17.90;;;9.50;;
80567;SDS011;69922;45.656;25.586;2023-12-28T04:19:44;17.70;;;9.90;;
80567;SDS011;69922;45.656;25.586;2023-12-28T04:20:50;16.20;;;10.90;;
80567;SDS011;69922;45.656;25.586;2023-12-28T04:21:57;18.60;;;10.20;;
80567;SDS011;69922;45.656;25.586;2023-12-28T04:23:03;17.60;;;10.70;;
80567;SDS011;69922;45.656;25.586;2023-12-28T04:24:10;15.80;;;9.00;;
80567;SDS011;69922;45.656;25.586;2023-12-28T04:25:17;17.00;;;9.80;;
80567;SDS011;69922;45.656;25.586;2023-12-28T04:26:23;16.20;;;8.90;;
80567;SDS011;69922;45.656;25.586;2023-12-28T04:27:29;17.50;;;9.20;;
80567;SDS011;69922;45.656;25.586;2023-12-28T04:28:36;18.40;;;9.90;;
80567;SDS011;69922;45.656;25.586;2023-12-28T04:29:43;16.20;;;9.30;;
80567;SDS011;69922;45.656;25.586;2023-12-28T04:30:50;12.80;;;7.80;;
80567;SDS011;69922;45.656;25.586;2023-12-28T04:31:57;13.70;;;8.20;;
80567;SDS011;69922;45.656;25.586;2023-12-28T04:33:04;16.30;;;8.50;;
80567;SDS011;69922;45.656;25.586;2023-12-28T04:34:11;14.20;;;9.00;;
80567;SDS011;69922;45.656;25.586;2023-12-28T04:35:17;17.90;;;9.50;;
80567;SDS011;69922;45.656;25.586;2023-12-28T04:36:24;17.30;;;9.70;;
80567;SDS011;69922;45.656;25.586;2023-12-28T04:37:31;21.80;;;11.00;;
80567;SDS011;69922;45.656;25.586;2023-12-28T04:38:38;20.50;;;10.50;;
80567;SDS011;69922;45.656;25.586;2023-12-28T04:39:45;21.80;;;11.40;;
80567;SDS011;69922;45.656;25.586;2023-12-28T04:40:52;27.00;;;14.40;;
80567;SDS011;69922;45.656;25.586;2023-12-28T04:41:58;25.40;;;16.60;;
80567;SDS011;69922;45.656;25.586;2023-12-28T04:43:04;24.90;;;15.10;;
80567;SDS011;69922;45.656;25.586;2023-12-28T04:44:11;25.80;;;14.50;;
80567;SDS011;69922;45.656;25.586;2023-12-28T04:45:17;29.20;;;14.50;;
80567;SDS011;69922;45.656;25.586;2023-12-28T04:46:23;25.60;;;13.70;;
80567;SDS011;69922;45.656;25.586;2023-12-28T04:47:30;23.10;;;13.00;;
80567;SDS011;69922;45.656;25.586;2023-12-28T04:48:36;23.50;;;10.90;;
80567;SDS011;69922;45.656;25.586;2023-12-28T04:49:43;22.50;;;10.90;;
80567;SDS011;69922;45.656;25.586;2023-12-28T04:50:50;20.90;;;10.60;;
80567;SDS011;69922;45.656;25.586;2023-12-28T04:51:57;26.30;;;10.80;;
80567;SDS011;69922;45.656;25.586;2023-12-28T04:53:05;20.90;;;10.80;;
80567;SDS011;69922;45.656;25.586;2023-12-28T04:54:11;23.60;;;9.10;;
80567;SDS011;69922;45.656;25.586;2023-12-28T04:55:18;22.50;;;10.10;;
80567;SDS011;69922;45.656;25.586;2023-12-28T04:56:25;25.00;;;9.40;;
80567;SDS011;69922;45.656;25.586;2023-12-28T04:57:31;22.40;;;10.10;;
80567;SDS011;69922;45.656;25.586;2023-12-28T04:58:38;21.20;;;9.30;;
80567;SDS011;69922;45.656;25.586;2023-12-28T04:59:44;23.00;;;9.40;;
80567;SDS011;69922;45.656;25.586;2023-12-28T05:00:51;21.50;;;10.20;;
80567;SDS011;69922;45.656;25.586;2023-12-28T05:01:57;22.20;;;10.00;;
80567;SDS011;69922;45.656;25.586;2023-12-28T05:03:04;18.60;;;9.40;;
80567;SDS011;69922;45.656;25.586;2023-12-28T05:04:11;16.70;;;8.70;;
80567;SDS011;69922;45.656;25.586;2023-12-28T05:05:21;18.20;;;9.30;;
80567;SDS011;69922;45.656;25.586;2023-12-28T05:06:29;17.70;;;8.20;;
80567;SDS011;69922;45.656;25.586;2023-12-28T05:07:36;22.20;;;9.50;;
80567;SDS011;69922;45.656;25.586;2023-12-28T05:08:42;22.20;;;9.80;;
80567;SDS011;69922;45.656;25.586;2023-12-28T05:09:49;18.10;;;8.90;;
80567;SDS011;69922;45.656;25.586;2023-12-28T05:10:56;21.40;;;10.40;;
80567;SDS011;69922;45.656;25.586;2023-12-28T05:12:03;21.30;;;10.90;;
80567;SDS011;69922;45.656;25.586;2023-12-28T05:13:10;27.70;;;9.30;;
80567;SDS011;69922;45.656;25.586;2023-12-28T05:14:17;25.20;;;9.10;;
80567;SDS011;69922;45.656;25.586;2023-12-28T05:15:23;18.00;;;8.70;;
80567;SDS011;69922;45.656;25.586;2023-12-28T05:16:30;13.10;;;7.90;;
80567;SDS011;69922;45.656;25.586;2023-12-28T05:17:36;15.00;;;7.90;;
80567;SDS011;69922;45.656;25.586;2023-12-28T05:18:43;13.70;;;7.60;;
80567;SDS011;69922;45.656;25.586;2023-12-28T05:19:49;13.40;;;7.40;;
80567;SDS011;69922;45.656;25.586;2023-12-28T05:20:56;16.80;;;8.70;;
80567;SDS011;69922;45.656;25.586;2023-12-28T05:22:03;13.70;;;7.90;;
80567;SDS011;69922;45.656;25.586;2023-12-28T05:24:16;17.10;;;6.70;;
80567;SDS011;69922;45.656;25.586;2023-12-28T05:25:23;12.50;;;6.50;;
80567;SDS011;69922;45.656;25.586;2023-12-28T05:26:30;11.80;;;7.80;;
80567;SDS011;69922;45.656;25.586;2023-12-28T05:27:36;14.50;;;7.60;;
80567;SDS011;69922;45.656;25.586;2023-12-28T05:28:42;16.60;;;7.90;;
80567;SDS011;69922;45.656;25.586;2023-12-28T05:29:48;17.10;;;8.20;;
80567;SDS011;69922;45.656;25.586;2023-12-28T05:30:55;16.40;;;8.20;;
80567;SDS011;69922;45.656;25.586;2023-12-28T05:32:03;17.80;;;9.10;;
80567;SDS011;69922;45.656;25.586;2023-12-28T05:33:11;14.40;;;8.10;;
80567;SDS011;69922;45.656;25.586;2023-12-28T05:34:17;14.10;;;8.50;;
80567;SDS011;69922;45.656;25.586;2023-12-28T05:35:24;15.40;;;8.10;;
80567;SDS011;69922;45.656;25.586;2023-12-28T05:36:30;17.40;;;9.10;;
80567;SDS011;69922;45.656;25.586;2023-12-28T05:37:37;11.70;;;7.40;;
80567;SDS011;69922;45.656;25.586;2023-12-28T05:38:43;14.30;;;8.40;;
80567;SDS011;69922;45.656;25.586;2023-12-28T05:39:50;15.60;;;7.80;;
80567;SDS011;69922;45.656;25.586;2023-12-28T05:40:57;13.50;;;7.50;;
80567;SDS011;69922;45.656;25.586;2023-12-28T05:42:04;11.80;;;8.40;;
80567;SDS011;69922;45.656;25.586;2023-12-28T05:43:11;15.20;;;9.00;;
80567;SDS011;69922;45.656;25.586;2023-12-28T05:44:17;15.80;;;8.70;;
80567;SDS011;69922;45.656;25.586;2023-12-28T05:45:25;13.10;;;8.50;;
80567;SDS011;69922;45.656;25.586;2023-12-28T05:46:31;15.00;;;8.80;;
80567;SDS011;69922;45.656;25.586;2023-12-28T05:47:37;14.80;;;9.20;;
80567;SDS011;69922;45.656;25.586;2023-12-28T05:48:44;14.20;;;8.20;;
80567;SDS011;69922;45.656;25.586;2023-12-28T05:49:50;17.40;;;9.10;;
80567;SDS011;69922;45.656;25.586;2023-12-28T05:50:58;12.50;;;8.40;;
80567;SDS011;69922;45.656;25.586;2023-12-28T05:52:05;17.90;;;8.50;;
80567;SDS011;69922;45.656;25.586;2023-12-28T05:53:11;18.40;;;10.20;;
80567;SDS011;69922;45.656;25.586;2023-12-28T05:54:18;17.50;;;9.90;;
80567;SDS011;69922;45.656;25.586;2023-12-28T05:55:24;13.20;;;8.00;;
80567;SDS011;69922;45.656;25.586;2023-12-28T05:56:31;18.10;;;9.60;;
80567;SDS011;69922;45.656;25.586;2023-12-28T05:57:38;13.00;;;10.70;;
80567;SDS011;69922;45.656;25.586;2023-12-28T05:58:44;15.30;;;10.10;;
80567;SDS011;69922;45.656;25.586;2023-12-28T05:59:51;22.60;;;10.20;;
80567;SDS011;69922;45.656;25.586;2023-12-28T06:00:57;16.20;;;9.10;;
80567;SDS011;69922;45.656;25.586;2023-12-28T06:02:04;16.10;;;9.90;;
80567;SDS011;69922;45.656;25.586;2023-12-28T06:03:11;15.30;;;8.80;;
80567;SDS011;69922;45.656;25.586;2023-12-28T06:04:18;16.00;;;9.00;;
80567;SDS011;69922;45.656;25.586;2023-12-28T06:05:24;17.10;;;9.80;;
80567;SDS011;69922;45.656;25.586;2023-12-28T06:06:31;15.90;;;9.80;;
80567;SDS011;69922;45.656;25.586;2023-12-28T06:07:38;18.70;;;10.00;;
80567;SDS011;69922;45.656;25.586;2023-12-28T06:08:45;16.30;;;9.60;;
80567;SDS011;69922;45.656;25.586;2023-12-28T06:09:51;13.70;;;9.20;;
80567;SDS011;69922;45.656;25.586;2023-12-28T06:10:58;19.80;;;11.60;;
80567;SDS011;69922;45.656;25.586;2023-12-28T06:12:04;20.40;;;11.20;;
80567;SDS011;69922;45.656;25.586;2023-12-28T06:13:11;18.80;;;9.70;;
80567;SDS011;69922;45.656;25.586;2023-12-28T06:14:18;17.00;;;9.80;;
80567;SDS011;69922;45.656;25.586;2023-12-28T06:15:24;16.20;;;10.20;;
80567;SDS011;69922;45.656;25.586;2023-12-28T06:16:31;15.30;;;9.30;;
80567;SDS011;69922;45.656;25.586;2023-12-28T06:17:38;15.20;;;9.20;;
80567;SDS011;69922;45.656;25.586;2023-12-28T06:18:44;15.80;;;9.50;;
80567;SDS011;69922;45.656;25.586;2023-12-28T06:19:51;18.90;;;10.00;;
80567;SDS011;69922;45.656;25.586;2023-12-28T06:20:57;18.30;;;9.70;;
80567;SDS011;69922;45.656;25.586;2023-12-28T06:22:04;14.50;;;8.90;;
80567;SDS011;69922;45.656;25.586;2023-12-28T06:23:11;17.40;;;9.00;;
80567;SDS011;69922;45.656;25.586;2023-12-28T06:24:17;16.20;;;8.80;;
80567;SDS011;69922;45.656;25.586;2023-12-28T06:25:24;18.00;;;9.90;;
80567;SDS011;69922;45.656;25.586;2023-12-28T06:26:30;15.30;;;9.10;;
80567;SDS011;69922;45.656;25.586;2023-12-28T06:27:37;15.00;;;9.10;;
80567;SDS011;69922;45.656;25.586;2023-12-28T06:28:43;14.90;;;8.80;;
80567;SDS011;69922;45.656;25.586;2023-12-28T06:29:50;16.60;;;9.30;;
80567;SDS011;69922;45.656;25.586;2023-12-28T06:30:57;16.20;;;9.70;;
80567;SDS011;69922;45.656;25.586;2023-12-28T06:32:06;16.00;;;9.00;;